createdAt,value
2022-11-27T00:01:00.800Z,9.55
2022-11-27T00:03:28.051Z,16.38
2022-11-27T00:05:56.691Z,13.82
2022-11-27T00:08:24.845Z,11.15
2022-11-27T00:10:51.719Z,7.00
2022-11-27T00:13:18.196Z,7.35
2022-11-27T00:15:44.810Z,6.28
2022-11-27T00:18:11.449Z,6.97
2022-11-27T00:20:37.881Z,5.65
2022-11-27T00:23:04.650Z,4.82
2022-11-27T00:25:31.590Z,5.50
2022-11-27T00:27:58.015Z,5.35
2022-11-27T00:30:24.371Z,5.03
2022-11-27T00:32:50.763Z,4.18
2022-11-27T00:35:17.238Z,6.47
2022-11-27T00:37:43.597Z,6.78
2022-11-27T00:40:10.528Z,6.57
2022-11-27T00:42:36.864Z,5.70
2022-11-27T00:45:03.720Z,5.00
2022-11-27T00:47:30.087Z,5.97
2022-11-27T00:49:56.398Z,6.03
2022-11-27T00:52:22.787Z,5.50
2022-11-27T00:54:49.257Z,6.38
2022-11-27T00:57:15.609Z,5.95
2022-11-27T00:59:41.947Z,4.55
2022-11-27T01:02:08.459Z,4.55
2022-11-27T01:04:34.861Z,4.00
2022-11-27T01:07:01.257Z,4.90
2022-11-27T01:09:27.681Z,5.60
2022-11-27T01:11:54.029Z,5.43
2022-11-27T01:14:20.415Z,4.60
2022-11-27T01:16:46.899Z,5.70
2022-11-27T01:19:14.545Z,5.15
2022-11-27T01:21:41.466Z,5.75
2022-11-27T01:24:08.363Z,5.38
2022-11-27T01:26:34.767Z,5.07
2022-11-27T01:29:01.270Z,6.07
2022-11-27T01:31:31.333Z,5.32
2022-11-27T01:34:12.447Z,6.93
2022-11-27T01:36:38.781Z,13.50
2022-11-27T01:39:05.222Z,12.35
2022-11-27T01:41:36.969Z,7.22
2022-11-27T01:44:23.293Z,5.65
2022-11-27T01:46:59.691Z,4.30
2022-11-27T01:49:36.717Z,3.63
2022-11-27T01:52:29.716Z,3.92
2022-11-27T01:54:57.846Z,4.18
2022-11-27T01:57:30.315Z,4.47
2022-11-27T01:59:59.700Z,3.47
2022-11-27T02:02:26.468Z,3.83
2022-11-27T02:04:54.662Z,4.13
2022-11-27T02:07:21.359Z,4.32
2022-11-27T02:09:47.925Z,4.22
2022-11-27T02:12:26.679Z,3.95
2022-11-27T02:15:34.750Z,3.75
2022-11-27T02:18:10.098Z,3.42
2022-11-27T02:21:01.133Z,3.90
2022-11-27T02:23:53.346Z,5.07
2022-11-27T02:26:41.189Z,4.80
2022-11-27T02:29:13.544Z,5.13
2022-11-27T02:31:59.908Z,4.38
2022-11-27T02:34:45.622Z,4.82
2022-11-27T02:37:30.651Z,4.72
2022-11-27T02:40:01.646Z,6.57
2022-11-27T02:42:33.773Z,6.53
2022-11-27T02:45:06.750Z,4.63
2022-11-27T02:47:33.724Z,5.57
2022-11-27T02:50:01.503Z,5.05
2022-11-27T02:52:29.579Z,5.18
2022-11-27T02:55:00.496Z,6.72
2022-11-27T02:57:28.270Z,7.03
2022-11-27T02:59:56.682Z,5.38
2022-11-27T03:02:28.719Z,5.32
2022-11-27T03:04:58.935Z,5.55
2022-11-27T03:07:54.103Z,4.97
2022-11-27T03:10:26.956Z,4.85
2022-11-27T03:12:53.330Z,5.20
2022-11-27T03:15:21.269Z,5.18
2022-11-27T03:18:02.477Z,5.43
2022-11-27T03:20:38.722Z,4.60
2022-11-27T03:23:05.205Z,4.68
2022-11-27T03:25:31.746Z,4.50
2022-11-27T03:28:04.707Z,4.60
2022-11-27T03:30:31.378Z,4.53
2022-11-27T03:32:58.209Z,5.78
2022-11-27T03:35:26.617Z,5.85
2022-11-27T03:37:54.644Z,5.57
2022-11-27T03:40:29.832Z,5.07
2022-11-27T03:43:07.932Z,5.18
2022-11-27T03:45:58.006Z,5.53
2022-11-27T03:48:58.343Z,4.78
2022-11-27T03:51:45.510Z,5.68
2022-11-27T03:54:26.518Z,6.10
2022-11-27T03:57:24.306Z,5.78
2022-11-27T03:59:54.661Z,6.13
2022-11-27T04:02:39.556Z,6.53
2022-11-27T04:05:06.480Z,8.07
2022-11-27T04:07:32.846Z,8.02
2022-11-27T04:09:59.222Z,7.97
2022-11-27T04:12:25.592Z,8.63
2022-11-27T04:14:52.124Z,10.45
2022-11-27T04:17:18.509Z,6.40
2022-11-27T04:19:44.857Z,8.57
2022-11-27T04:22:11.206Z,6.47
2022-11-27T04:24:37.662Z,5.82
2022-11-27T04:27:04.177Z,7.15
2022-11-27T04:29:30.549Z,5.38
2022-11-27T04:31:56.884Z,5.97
2022-11-27T04:34:23.339Z,10.88
2022-11-27T04:36:49.739Z,8.05
2022-11-27T04:39:16.352Z,6.05
2022-11-27T04:41:42.752Z,5.70
2022-11-27T04:44:09.100Z,9.18
2022-11-27T04:46:35.623Z,8.18
2022-11-27T04:49:02.043Z,9.35
2022-11-27T04:51:28.398Z,8.98
2022-11-27T04:53:54.785Z,10.23
2022-11-27T04:56:21.337Z,4.68
2022-11-27T04:58:47.787Z,6.68
2022-11-27T05:01:14.244Z,6.68
2022-11-27T05:03:40.765Z,5.85
2022-11-27T05:06:07.159Z,6.50
2022-11-27T05:08:33.906Z,6.05
2022-11-27T05:11:06.022Z,3.97
2022-11-27T05:13:32.590Z,6.97
2022-11-27T05:15:59.078Z,5.55
2022-11-27T05:18:25.620Z,5.97
2022-11-27T05:21:03.946Z,5.95
2022-11-27T05:23:31.003Z,6.45
2022-11-27T05:25:57.663Z,5.78
2022-11-27T05:28:26.830Z,6.75
2022-11-27T05:30:54.103Z,5.70
2022-11-27T05:33:20.800Z,6.75
2022-11-27T05:35:47.153Z,6.75
2022-11-27T05:38:13.486Z,8.02
2022-11-27T05:40:39.964Z,6.97
2022-11-27T05:43:06.955Z,5.80
2022-11-27T05:45:33.351Z,4.60
2022-11-27T05:47:59.685Z,6.18
2022-11-27T05:50:26.102Z,9.57
2022-11-27T05:52:52.435Z,8.40
2022-11-27T05:55:18.801Z,8.27
2022-11-27T05:57:45.191Z,8.38
2022-11-27T06:00:12.201Z,8.07
2022-11-27T06:02:38.715Z,6.25
2022-11-27T06:05:05.504Z,5.70
2022-11-27T06:07:32.032Z,7.70
2022-11-27T06:09:58.441Z,9.60
2022-11-27T06:12:25.045Z,6.65
2022-11-27T06:14:51.468Z,7.43
2022-11-27T06:17:17.926Z,7.15
2022-11-27T06:19:44.360Z,6.53
2022-11-27T06:22:10.887Z,9.35
2022-11-27T06:24:37.351Z,9.80
2022-11-27T06:27:03.868Z,8.68
2022-11-27T06:29:30.511Z,8.70
2022-11-27T06:31:56.876Z,12.82
2022-11-27T06:34:23.299Z,11.52
2022-11-27T06:36:51.054Z,8.75
2022-11-27T06:39:17.505Z,10.40
2022-11-27T06:41:43.966Z,11.98
2022-11-27T06:44:10.662Z,11.75
2022-11-27T06:46:37.231Z,11.20
2022-11-27T06:49:03.853Z,8.77
2022-11-27T06:51:32.286Z,8.85
2022-11-27T06:54:00.478Z,14.35
2022-11-27T06:56:29.733Z,13.57
2022-11-27T06:59:01.358Z,13.70
2022-11-27T07:01:29.983Z,12.15
2022-11-27T07:03:57.262Z,12.10
2022-11-27T07:06:26.774Z,10.82
2022-11-27T07:08:54.206Z,11.35
2022-11-27T07:11:25.974Z,11.98
2022-11-27T07:13:55.226Z,12.88
2022-11-27T07:16:21.751Z,12.40
2022-11-27T07:18:52.953Z,12.68
2022-11-27T07:21:20.247Z,8.85
2022-11-27T07:23:47.084Z,16.35
2022-11-27T07:26:27.844Z,13.68
2022-11-27T07:28:54.803Z,14.98
2022-11-27T07:31:24.339Z,9.27
2022-11-27T07:33:52.439Z,13.27
2022-11-27T07:36:21.997Z,8.63
2022-11-27T07:38:49.095Z,9.90
2022-11-27T07:41:16.062Z,11.50
2022-11-27T07:43:43.792Z,12.55
2022-11-27T07:46:22.145Z,11.75
2022-11-27T07:48:48.803Z,13.00
2022-11-27T07:51:18.253Z,11.75
2022-11-27T07:53:44.963Z,9.57
2022-11-27T07:56:14.087Z,14.35
2022-11-27T07:58:40.647Z,11.50
2022-11-27T08:01:09.327Z,11.18
2022-11-27T08:03:36.250Z,12.73
2022-11-27T08:06:02.614Z,14.25
2022-11-27T08:08:29.127Z,19.40
2022-11-27T08:10:55.559Z,13.02
2022-11-27T08:13:21.902Z,13.50
2022-11-27T08:15:48.349Z,13.48
2022-11-27T08:18:14.742Z,18.65
2022-11-27T08:20:41.115Z,16.75
2022-11-27T08:23:07.460Z,19.23
2022-11-27T08:25:33.870Z,13.52
2022-11-27T08:28:00.252Z,21.77
2022-11-27T08:30:26.651Z,19.73
2022-11-27T08:32:53.069Z,14.65
2022-11-27T08:35:22.739Z,13.15
2022-11-27T08:37:49.178Z,15.05
2022-11-27T08:40:15.679Z,11.85
2022-11-27T08:42:42.077Z,10.35
2022-11-27T08:45:09.199Z,13.93
2022-11-27T08:47:35.595Z,10.90
2022-11-27T08:50:01.920Z,10.10
2022-11-27T08:52:28.286Z,6.88
2022-11-27T08:54:57.826Z,11.38
2022-11-27T08:57:24.933Z,12.25
2022-11-27T08:59:51.284Z,19.67
2022-11-27T09:02:17.641Z,10.02
2022-11-27T09:04:44.183Z,11.20
2022-11-27T09:07:14.053Z,14.88
2022-11-27T09:09:40.565Z,20.38
2022-11-27T09:12:07.341Z,18.00
2022-11-27T09:14:33.650Z,12.43
2022-11-27T09:17:01.488Z,14.60
2022-11-27T09:19:28.987Z,10.13
2022-11-27T09:21:56.130Z,12.07
2022-11-27T09:24:22.537Z,12.77
2022-11-27T09:26:48.921Z,17.65
2022-11-27T09:29:15.314Z,14.85
2022-11-27T09:31:41.695Z,15.52
2022-11-27T09:34:08.148Z,19.55
2022-11-27T09:36:34.678Z,19.52
2022-11-27T09:39:02.609Z,18.42
2022-11-27T09:41:39.224Z,8.43
2022-11-27T09:44:11.646Z,8.43
2022-11-27T09:46:41.165Z,9.80
2022-11-27T09:49:12.420Z,13.43
2022-11-27T09:51:46.771Z,9.30
2022-11-27T09:54:22.469Z,12.98
2022-11-27T09:56:52.333Z,12.95
2022-11-27T09:59:22.224Z,16.90
2022-11-27T10:01:51.127Z,12.82
2022-11-27T10:04:20.075Z,17.25
2022-11-27T10:07:04.907Z,17.23
2022-11-27T10:09:56.785Z,10.10
2022-11-27T10:12:38.123Z,10.23
2022-11-27T10:15:13.983Z,7.78
2022-11-27T10:17:48.782Z,7.45
2022-11-27T10:20:28.982Z,8.40
2022-11-27T10:23:12.615Z,10.57
2022-11-27T10:25:45.736Z,9.10
2022-11-27T10:28:20.025Z,16.08
2022-11-27T10:31:12.827Z,12.80
2022-11-27T10:33:46.194Z,10.60
2022-11-27T10:36:21.912Z,10.80
2022-11-27T10:38:49.075Z,10.57
2022-11-27T10:41:48.164Z,17.20
2022-11-27T10:46:52.217Z,10.15
2022-11-27T10:49:18.592Z,11.40
2022-11-27T10:51:44.939Z,15.52
2022-11-27T10:54:26.274Z,16.67
2022-11-27T10:57:25.902Z,13.35
2022-11-27T11:00:09.456Z,10.45
2022-11-27T11:02:38.616Z,13.98
2022-11-27T11:05:40.883Z,10.18
2022-11-27T11:08:21.457Z,11.25
2022-11-27T11:10:54.291Z,11.38
2022-11-27T11:13:23.907Z,10.75
2022-11-27T11:15:57.884Z,13.85
2022-11-27T11:18:41.254Z,13.48
2022-11-27T11:21:16.786Z,14.02
2022-11-27T11:23:43.395Z,10.15
2022-11-27T11:26:28.362Z,11.75
2022-11-27T11:28:58.598Z,11.50
2022-11-27T11:31:33.617Z,12.43
2022-11-27T11:34:04.048Z,10.27
2022-11-27T11:36:30.817Z,9.45
2022-11-27T11:38:57.545Z,9.60
2022-11-27T11:41:24.434Z,11.25
2022-11-27T11:43:56.567Z,11.40
2022-11-27T11:46:30.711Z,9.20
2022-11-27T11:49:27.402Z,8.82
2022-11-27T11:52:20.970Z,9.35
2022-11-27T11:54:53.558Z,9.30
2022-11-27T11:57:29.270Z,8.20
2022-11-27T12:00:10.054Z,8.68
2022-11-27T12:02:58.415Z,10.82
2022-11-27T12:05:33.349Z,10.05
2022-11-27T12:08:26.281Z,9.43
2022-11-27T12:11:04.806Z,9.25
2022-11-27T12:13:39.593Z,9.45
2022-11-27T12:16:08.818Z,10.35
2022-11-27T12:18:59.328Z,9.88
2022-11-27T12:21:44.613Z,9.40
2022-11-27T12:24:10.906Z,12.43
2022-11-27T12:26:40.273Z,9.55
2022-11-27T12:29:24.511Z,9.90
2022-11-27T12:32:00.466Z,10.90
2022-11-27T12:34:43.947Z,11.70
2022-11-27T12:37:16.300Z,12.00
2022-11-27T12:40:22.713Z,9.73
2022-11-27T12:43:24.582Z,8.35
2022-11-27T12:46:17.427Z,9.23
2022-11-27T12:48:50.618Z,12.32
2022-11-27T12:51:37.148Z,12.40
2022-11-27T12:54:12.897Z,8.63
2022-11-27T12:56:45.031Z,10.20
2022-11-27T12:59:23.579Z,11.27
2022-11-27T13:02:10.919Z,9.45
2022-11-27T13:04:44.935Z,8.73
2022-11-27T13:07:24.692Z,7.88
2022-11-27T13:10:11.870Z,9.13
2022-11-27T13:13:04.390Z,8.95
2022-11-27T13:15:39.491Z,5.72
2022-11-27T13:18:36.699Z,8.15
2022-11-27T13:21:12.007Z,8.30
2022-11-27T13:23:38.650Z,8.07
2022-11-27T13:26:12.463Z,9.07
2022-11-27T13:28:50.950Z,8.07
2022-11-27T13:31:29.748Z,7.03
2022-11-27T13:34:03.155Z,9.65
2022-11-27T13:36:38.797Z,18.27
2022-11-27T13:39:06.227Z,25.27
2022-11-27T13:41:39.838Z,10.25
2022-11-27T13:44:24.566Z,9.82
2022-11-27T13:46:56.327Z,13.38
2022-11-27T13:49:28.808Z,11.50
2022-11-27T13:52:12.386Z,11.85
2022-11-27T13:54:39.391Z,13.70
2022-11-27T13:57:12.410Z,12.43
2022-11-27T13:59:39.591Z,14.23
2022-11-27T14:02:08.372Z,11.60
2022-11-27T14:04:35.894Z,12.05
2022-11-27T14:07:09.708Z,11.13
2022-11-27T14:09:49.646Z,10.25
2022-11-27T14:12:30.265Z,9.70
2022-11-27T14:15:16.887Z,9.13
2022-11-27T14:17:49.082Z,8.25
2022-11-27T14:20:18.449Z,9.73
2022-11-27T14:25:37.933Z,9.23
2022-11-27T14:28:06.974Z,8.77
2022-11-27T14:30:45.055Z,9.70
2022-11-27T14:33:20.158Z,7.88
2022-11-27T14:36:01.119Z,9.52
2022-11-27T14:38:29.565Z,10.57
2022-11-27T14:41:08.814Z,6.85
2022-11-27T14:43:35.252Z,7.75
2022-11-27T14:46:02.882Z,9.95
2022-11-27T14:48:43.674Z,8.52
2022-11-27T14:51:16.501Z,8.50
2022-11-27T14:53:44.121Z,8.73
2022-11-27T14:56:12.177Z,8.20
2022-11-27T14:58:43.154Z,11.05
2022-11-27T15:01:27.875Z,10.55
2022-11-27T15:03:59.226Z,10.80
2022-11-27T15:06:30.202Z,10.07
2022-11-27T15:09:23.729Z,8.85
2022-11-27T15:11:55.831Z,10.20
2022-11-27T15:14:23.394Z,9.32
2022-11-27T15:16:52.695Z,13.00
2022-11-27T15:19:39.696Z,10.68
2022-11-27T15:22:06.278Z,8.60
2022-11-27T15:24:35.236Z,9.93
2022-11-27T15:27:21.518Z,8.05
2022-11-27T15:29:50.872Z,8.57
2022-11-27T15:32:23.477Z,8.73
2022-11-27T15:34:51.925Z,8.85
2022-11-27T15:37:20.311Z,8.13
2022-11-27T15:39:51.587Z,8.70
2022-11-27T15:42:19.259Z,7.85
2022-11-27T15:44:46.719Z,6.40
2022-11-27T15:47:27.409Z,8.15
2022-11-27T15:49:54.403Z,8.02
2022-11-27T15:52:21.130Z,9.18
2022-11-27T15:54:47.591Z,7.55
2022-11-27T15:57:14.201Z,7.65
2022-11-27T15:59:40.779Z,10.35
2022-11-27T16:02:07.813Z,7.00
2022-11-27T16:04:34.427Z,11.68
2022-11-27T16:07:00.743Z,11.25
2022-11-27T16:09:27.439Z,10.00
2022-11-27T16:11:53.979Z,9.25
2022-11-27T16:14:20.389Z,7.97
2022-11-27T16:16:46.988Z,6.25
2022-11-27T16:19:14.749Z,7.97
2022-11-27T16:21:41.598Z,7.88
2022-11-27T16:24:11.403Z,7.22
2022-11-27T16:26:38.097Z,9.13
2022-11-27T16:29:09.090Z,8.00
2022-11-27T16:31:36.013Z,9.32
2022-11-27T16:34:03.369Z,8.82
2022-11-27T16:36:29.711Z,8.50
2022-11-27T16:38:56.230Z,8.60
2022-11-27T16:41:23.504Z,8.20
2022-11-27T16:43:52.475Z,8.82
2022-11-27T16:46:21.832Z,7.70
2022-11-27T16:48:49.865Z,8.23
2022-11-27T16:51:28.288Z,6.82
2022-11-27T16:53:56.825Z,6.43
2022-11-27T16:56:25.482Z,6.97
2022-11-27T16:58:52.319Z,6.78
2022-11-27T17:01:21.317Z,7.70
2022-11-27T17:03:48.387Z,8.88
2022-11-27T17:06:17.687Z,7.88
2022-11-27T17:08:44.081Z,9.38
2022-11-27T17:11:21.855Z,7.30
2022-11-27T17:13:49.481Z,6.10
2022-11-27T17:16:15.936Z,7.72
2022-11-27T17:18:45.484Z,8.27
2022-11-27T17:21:16.550Z,7.68
2022-11-27T17:23:43.141Z,8.30
2022-11-27T17:26:11.571Z,7.50
2022-11-27T17:28:38.417Z,7.35
2022-11-27T17:31:16.184Z,6.60
2022-11-27T17:33:43.062Z,8.15
2022-11-27T17:36:10.847Z,7.13
2022-11-27T17:38:37.686Z,7.55
2022-11-27T17:41:07.891Z,7.97
2022-11-27T17:43:38.638Z,7.97
2022-11-27T17:46:16.885Z,7.50
2022-11-27T17:48:43.938Z,6.95
2022-11-27T17:51:11.005Z,8.10
2022-11-27T17:53:37.830Z,7.00
2022-11-27T17:56:09.478Z,8.27
2022-11-27T17:58:36.622Z,13.07
2022-11-27T18:01:05.112Z,9.50
2022-11-27T18:03:33.449Z,8.60
2022-11-27T18:06:06.563Z,7.80
2022-11-27T18:08:33.394Z,7.53
2022-11-27T18:11:11.837Z,9.13
2022-11-27T18:13:38.306Z,7.90
2022-11-27T18:16:11.001Z,8.02
2022-11-27T18:18:38.019Z,9.35
2022-11-27T18:21:26.971Z,9.13
2022-11-27T18:24:21.919Z,8.70
2022-11-27T18:29:28.124Z,8.43
2022-11-27T18:31:54.861Z,8.02
2022-11-27T18:34:21.307Z,10.27
2022-11-27T18:36:47.754Z,8.82
2022-11-27T18:39:15.619Z,9.35
2022-11-27T18:41:42.033Z,7.93
2022-11-27T18:44:09.639Z,8.75
2022-11-27T18:46:36.316Z,11.52
2022-11-27T18:49:02.910Z,9.32
2022-11-27T18:51:29.422Z,9.23
2022-11-27T18:53:56.500Z,9.60
2022-11-27T18:56:30.422Z,9.75
2022-11-27T18:59:01.257Z,10.88
2022-11-27T19:01:29.961Z,8.57
2022-11-27T19:03:58.955Z,9.77
2022-11-27T19:06:26.296Z,11.02
2022-11-27T19:08:52.763Z,9.32
2022-11-27T19:11:22.255Z,10.05
2022-11-27T19:13:49.722Z,10.27
2022-11-27T19:16:18.759Z,10.50
2022-11-27T19:18:45.792Z,11.20
2022-11-27T19:21:18.550Z,10.75
2022-11-27T19:23:45.614Z,11.13
2022-11-27T19:26:14.663Z,8.93
2022-11-27T19:28:41.450Z,12.63
2022-11-27T19:31:10.406Z,10.07
2022-11-27T19:33:38.238Z,10.65
2022-11-27T19:36:08.551Z,11.50
2022-11-27T19:38:35.578Z,9.52
2022-11-27T19:41:03.078Z,12.10
2022-11-27T19:43:29.484Z,11.05
2022-11-27T19:45:55.887Z,10.10
2022-11-27T19:48:23.523Z,8.80
2022-11-27T19:50:51.567Z,8.93
2022-11-27T19:53:18.277Z,8.93
2022-11-27T19:55:54.945Z,9.55
2022-11-27T19:58:21.451Z,8.88
2022-11-27T20:00:48.013Z,11.10
2022-11-27T20:03:14.580Z,9.40
2022-11-27T20:05:43.093Z,9.75
2022-11-27T20:08:10.480Z,10.27
2022-11-27T20:10:37.093Z,9.75
2022-11-27T20:13:03.547Z,11.82
2022-11-27T20:15:29.984Z,9.40
2022-11-27T20:17:56.354Z,10.43
2022-11-27T20:20:22.936Z,9.15
2022-11-27T20:22:50.214Z,9.02
2022-11-27T20:25:20.547Z,10.88
2022-11-27T20:27:47.160Z,9.10
2022-11-27T20:30:13.863Z,11.30
2022-11-27T20:32:40.324Z,10.70
2022-11-27T20:35:06.938Z,11.90
2022-11-27T20:37:33.926Z,9.18
2022-11-27T20:40:00.408Z,12.00
2022-11-27T20:42:27.956Z,9.35
2022-11-27T20:44:54.401Z,10.10
2022-11-27T20:47:20.783Z,9.35
2022-11-27T20:49:47.278Z,10.15
2022-11-27T20:52:14.474Z,9.32
2022-11-27T20:54:41.035Z,7.82
2022-11-27T20:57:08.728Z,10.07
2022-11-27T20:59:35.239Z,10.70
2022-11-27T21:02:02.647Z,8.15
2022-11-27T21:04:29.128Z,9.70
2022-11-27T21:06:56.849Z,10.20
2022-11-27T21:09:23.901Z,9.18
2022-11-27T21:11:50.362Z,11.02
2022-11-27T21:14:17.415Z,10.90
2022-11-27T21:16:48.545Z,9.00
2022-11-27T21:21:47.503Z,9.15
2022-11-27T21:24:14.609Z,8.15
2022-11-27T21:26:41.994Z,8.57
2022-11-27T21:29:12.106Z,9.30
2022-11-27T21:31:43.825Z,10.40
2022-11-27T21:34:12.971Z,8.95
2022-11-27T21:36:39.498Z,7.32
2022-11-27T21:39:10.516Z,8.88
2022-11-27T21:41:36.903Z,7.53
2022-11-27T21:44:04.156Z,8.73
2022-11-27T21:46:31.204Z,9.07
2022-11-27T21:49:00.609Z,9.75
2022-11-27T21:51:28.094Z,9.80
2022-11-27T21:53:55.734Z,8.75
2022-11-27T21:56:24.281Z,9.02
2022-11-27T21:58:51.154Z,8.80
2022-11-27T22:01:23.288Z,9.02
2022-11-27T22:03:56.542Z,9.48
2022-11-27T22:06:27.504Z,10.50
2022-11-27T22:08:57.047Z,9.57
2022-11-27T22:11:26.779Z,10.60
2022-11-27T22:14:04.683Z,7.82
2022-11-27T22:16:33.728Z,10.80
2022-11-27T22:19:02.285Z,10.35
2022-11-27T22:21:30.595Z,10.30
2022-11-27T22:23:57.412Z,11.85
2022-11-27T22:26:24.801Z,9.57
2022-11-27T22:28:51.995Z,10.15
2022-11-27T22:31:24.539Z,11.40
2022-11-27T22:33:51.245Z,8.70
2022-11-27T22:36:26.656Z,8.90
2022-11-27T22:38:54.871Z,9.80
2022-11-27T22:41:23.264Z,11.35
2022-11-27T22:43:49.990Z,10.63
2022-11-27T22:46:25.100Z,9.80
2022-11-27T22:48:59.243Z,9.27
2022-11-27T22:51:27.653Z,11.60
2022-11-27T22:53:54.354Z,8.23
2022-11-27T22:56:20.938Z,8.73
2022-11-27T22:58:47.348Z,9.05
2022-11-27T23:01:22.002Z,9.60
2022-11-27T23:03:48.857Z,9.25
2022-11-27T23:06:17.119Z,10.93
2022-11-27T23:08:45.401Z,8.20
2022-11-27T23:11:18.988Z,10.13
2022-11-27T23:13:49.693Z,11.20
2022-11-27T23:16:17.640Z,9.68
2022-11-27T23:18:44.414Z,11.30
2022-11-27T23:21:14.464Z,10.48
2022-11-27T23:23:41.024Z,10.43
2022-11-27T23:26:13.397Z,10.02
2022-11-27T23:28:45.030Z,10.25
2022-11-27T23:31:29.565Z,12.30
2022-11-27T23:33:56.718Z,11.88
2022-11-27T23:36:23.204Z,10.15
2022-11-27T23:38:49.629Z,11.02
2022-11-27T23:41:22.283Z,11.55
2022-11-27T23:43:49.766Z,9.52
2022-11-27T23:46:18.752Z,11.18
2022-11-27T23:48:45.586Z,11.82
2022-11-27T23:51:20.829Z,10.30
2022-11-27T23:53:47.859Z,8.95
2022-11-27T23:56:17.311Z,11.88
2022-11-27T23:58:46.959Z,10.82
